sensor_id;sensor_type;location;lat;lon;timestamp;P1;durP1;ratioP1;P2;durP2;ratioP2
11338;SDS011;5724;42.684;23.252;2022-07-29T00:02:15;9.30;;;8.80;;
11338;SDS011;5724;42.684;23.252;2022-07-29T00:04:40;10.38;;;9.82;;
11338;SDS011;5724;42.684;23.252;2022-07-29T00:07:06;10.70;;;10.05;;
11338;SDS011;5724;42.684;23.252;2022-07-29T00:09:31;9.93;;;9.23;;
11338;SDS011;5724;42.684;23.252;2022-07-29T00:11:59;10.63;;;9.88;;
11338;SDS011;5724;42.684;23.252;2022-07-29T00:14:25;10.82;;;10.15;;
11338;SDS011;5724;42.684;23.252;2022-07-29T00:16:51;9.68;;;9.07;;
11338;SDS011;5724;42.684;23.252;2022-07-29T00:19:17;10.57;;;9.95;;
11338;SDS011;5724;42.684;23.252;2022-07-29T00:21:43;10.27;;;9.48;;
11338;SDS011;5724;42.684;23.252;2022-07-29T00:24:08;10.32;;;9.73;;
11338;SDS011;5724;42.684;23.252;2022-07-29T00:26:34;9.73;;;8.95;;
11338;SDS011;5724;42.684;23.252;2022-07-29T00:28:59;9.40;;;8.75;;
11338;SDS011;5724;42.684;23.252;2022-07-29T00:31:26;9.20;;;8.57;;
11338;SDS011;5724;42.684;23.252;2022-07-29T00:33:52;9.10;;;8.45;;
11338;SDS011;5724;42.684;23.252;2022-07-29T00:36:18;9.55;;;8.88;;
11338;SDS011;5724;42.684;23.252;2022-07-29T00:38:45;10.45;;;9.43;;
11338;SDS011;5724;42.684;23.252;2022-07-29T00:41:12;10.07;;;9.38;;
11338;SDS011;5724;42.684;23.252;2022-07-29T00:43:38;10.57;;;9.68;;
11338;SDS011;5724;42.684;23.252;2022-07-29T00:46:03;10.63;;;10.10;;
11338;SDS011;5724;42.684;23.252;2022-07-29T00:48:29;10.40;;;9.55;;
11338;SDS011;5724;42.684;23.252;2022-07-29T00:50:54;10.65;;;10.05;;
11338;SDS011;5724;42.684;23.252;2022-07-29T00:53:22;12.05;;;11.02;;
11338;SDS011;5724;42.684;23.252;2022-07-29T00:55:49;12.00;;;10.98;;
11338;SDS011;5724;42.684;23.252;2022-07-29T00:58:15;11.23;;;10.43;;
11338;SDS011;5724;42.684;23.252;2022-07-29T01:00:41;12.27;;;11.18;;
11338;SDS011;5724;42.684;23.252;2022-07-29T01:03:07;12.38;;;11.55;;
11338;SDS011;5724;42.684;23.252;2022-07-29T01:05:32;13.52;;;12.48;;
11338;SDS011;5724;42.684;23.252;2022-07-29T01:08:00;12.70;;;11.80;;
11338;SDS011;5724;42.684;23.252;2022-07-29T01:10:26;12.60;;;11.70;;
11338;SDS011;5724;42.684;23.252;2022-07-29T01:12:52;12.20;;;11.23;;
11338;SDS011;5724;42.684;23.252;2022-07-29T01:15:19;11.93;;;10.90;;
11338;SDS011;5724;42.684;23.252;2022-07-29T01:17:49;13.38;;;12.45;;
11338;SDS011;5724;42.684;23.252;2022-07-29T01:20:28;12.57;;;11.70;;
11338;SDS011;5724;42.684;23.252;2022-07-29T01:23:40;12.10;;;11.30;;
11338;SDS011;5724;42.684;23.252;2022-07-29T01:32:18;11.32;;;10.38;;
11338;SDS011;5724;42.684;23.252;2022-07-29T01:34:58;13.73;;;10.57;;
11338;SDS011;5724;42.684;23.252;2022-07-29T01:37:47;10.98;;;9.98;;
11338;SDS011;5724;42.684;23.252;2022-07-29T01:41:01;11.20;;;10.30;;
11338;SDS011;5724;42.684;23.252;2022-07-29T01:43:13;11.05;;;10.18;;
11338;SDS011;5724;42.684;23.252;2022-07-29T01:45:43;11.27;;;10.20;;
11338;SDS011;5724;42.684;23.252;2022-07-29T01:48:13;11.13;;;10.32;;
11338;SDS011;5724;42.684;23.252;2022-07-29T01:51:25;11.25;;;10.43;;
11338;SDS011;5724;42.684;23.252;2022-07-29T01:53:42;10.77;;;9.80;;
11338;SDS011;5724;42.684;23.252;2022-07-29T01:56:13;11.68;;;10.60;;
11338;SDS011;5724;42.684;23.252;2022-07-29T01:58:41;10.82;;;10.02;;
11338;SDS011;5724;42.684;23.252;2022-07-29T02:01:10;11.15;;;10.35;;
11338;SDS011;5724;42.684;23.252;2022-07-29T02:03:37;10.50;;;9.90;;
11338;SDS011;5724;42.684;23.252;2022-07-29T02:06:07;11.15;;;10.25;;
11338;SDS011;5724;42.684;23.252;2022-07-29T02:08:34;11.55;;;10.65;;
11338;SDS011;5724;42.684;23.252;2022-07-29T02:11:02;11.07;;;10.18;;
11338;SDS011;5724;42.684;23.252;2022-07-29T02:13:30;11.27;;;10.38;;
11338;SDS011;5724;42.684;23.252;2022-07-29T02:15:59;11.40;;;10.48;;
11338;SDS011;5724;42.684;23.252;2022-07-29T02:18:26;11.35;;;10.35;;
11338;SDS011;5724;42.684;23.252;2022-07-29T02:20:55;10.50;;;9.60;;
11338;SDS011;5724;42.684;23.252;2022-07-29T02:23:23;10.77;;;9.90;;
11338;SDS011;5724;42.684;23.252;2022-07-29T02:25:54;10.98;;;10.20;;
11338;SDS011;5724;42.684;23.252;2022-07-29T02:28:22;10.70;;;9.88;;
11338;SDS011;5724;42.684;23.252;2022-07-29T02:30:49;10.80;;;9.98;;
11338;SDS011;5724;42.684;23.252;2022-07-29T02:33:17;10.93;;;9.93;;
11338;SDS011;5724;42.684;23.252;2022-07-29T02:35:45;11.65;;;10.75;;
11338;SDS011;5724;42.684;23.252;2022-07-29T02:38:13;10.65;;;9.73;;
11338;SDS011;5724;42.684;23.252;2022-07-29T02:41:00;10.70;;;9.90;;
11338;SDS011;5724;42.684;23.252;2022-07-29T02:43:29;10.55;;;9.82;;
11338;SDS011;5724;42.684;23.252;2022-07-29T02:45:56;11.77;;;10.77;;
11338;SDS011;5724;42.684;23.252;2022-07-29T02:48:33;10.73;;;9.85;;
11338;SDS011;5724;42.684;23.252;2022-07-29T02:51:06;11.25;;;10.35;;
11338;SDS011;5724;42.684;23.252;2022-07-29T02:53:36;10.98;;;10.07;;
11338;SDS011;5724;42.684;23.252;2022-07-29T02:56:06;11.30;;;10.40;;
11338;SDS011;5724;42.684;23.252;2022-07-29T02:58:39;11.63;;;10.82;;
11338;SDS011;5724;42.684;23.252;2022-07-29T03:01:10;11.38;;;10.30;;
11338;SDS011;5724;42.684;23.252;2022-07-29T03:03:39;12.27;;;11.40;;
11338;SDS011;5724;42.684;23.252;2022-07-29T03:06:06;11.70;;;10.70;;
11338;SDS011;5724;42.684;23.252;2022-07-29T03:08:33;13.00;;;11.75;;
11338;SDS011;5724;42.684;23.252;2022-07-29T03:10:59;11.45;;;10.35;;
11338;SDS011;5724;42.684;23.252;2022-07-29T03:13:26;11.68;;;10.80;;
11338;SDS011;5724;42.684;23.252;2022-07-29T03:15:54;10.88;;;10.13;;
11338;SDS011;5724;42.684;23.252;2022-07-29T03:18:20;12.13;;;11.32;;
11338;SDS011;5724;42.684;23.252;2022-07-29T03:20:46;13.75;;;12.35;;
11338;SDS011;5724;42.684;23.252;2022-07-29T03:23:12;14.07;;;12.88;;
11338;SDS011;5724;42.684;23.252;2022-07-29T03:25:51;13.13;;;12.20;;
11338;SDS011;5724;42.684;23.252;2022-07-29T03:28:17;13.93;;;12.90;;
11338;SDS011;5724;42.684;23.252;2022-07-29T03:30:43;14.23;;;13.10;;
11338;SDS011;5724;42.684;23.252;2022-07-29T03:33:09;13.57;;;12.48;;
11338;SDS011;5724;42.684;23.252;2022-07-29T03:35:34;13.18;;;11.98;;
11338;SDS011;5724;42.684;23.252;2022-07-29T03:38:00;13.30;;;11.82;;
11338;SDS011;5724;42.684;23.252;2022-07-29T03:40:28;13.40;;;12.23;;
11338;SDS011;5724;42.684;23.252;2022-07-29T03:42:58;13.85;;;12.82;;
11338;SDS011;5724;42.684;23.252;2022-07-29T03:45:25;15.00;;;13.70;;
11338;SDS011;5724;42.684;23.252;2022-07-29T03:47:55;14.25;;;13.10;;
11338;SDS011;5724;42.684;23.252;2022-07-29T03:50:26;14.02;;;12.73;;
11338;SDS011;5724;42.684;23.252;2022-07-29T03:52:52;13.95;;;13.00;;
11338;SDS011;5724;42.684;23.252;2022-07-29T03:55:18;14.93;;;13.70;;
11338;SDS011;5724;42.684;23.252;2022-07-29T03:57:44;16.13;;;14.77;;
11338;SDS011;5724;42.684;23.252;2022-07-29T04:00:12;16.42;;;15.23;;
11338;SDS011;5724;42.684;23.252;2022-07-29T04:02:38;15.65;;;14.55;;
11338;SDS011;5724;42.684;23.252;2022-07-29T04:05:05;15.75;;;14.27;;
11338;SDS011;5724;42.684;23.252;2022-07-29T04:07:37;14.18;;;13.20;;
11338;SDS011;5724;42.684;23.252;2022-07-29T04:10:02;14.43;;;13.13;;
11338;SDS011;5724;42.684;23.252;2022-07-29T04:12:28;13.77;;;12.70;;
11338;SDS011;5724;42.684;23.252;2022-07-29T04:14:54;14.07;;;13.05;;
11338;SDS011;5724;42.684;23.252;2022-07-29T04:17:19;14.20;;;13.20;;
11338;SDS011;5724;42.684;23.252;2022-07-29T04:19:45;12.68;;;11.77;;
11338;SDS011;5724;42.684;23.252;2022-07-29T04:22:10;14.40;;;12.90;;
11338;SDS011;5724;42.684;23.252;2022-07-29T04:24:36;13.27;;;12.32;;
11338;SDS011;5724;42.684;23.252;2022-07-29T04:27:01;12.98;;;12.02;;
11338;SDS011;5724;42.684;23.252;2022-07-29T04:29:27;13.82;;;12.52;;
11338;SDS011;5724;42.684;23.252;2022-07-29T04:31:52;13.55;;;12.60;;
11338;SDS011;5724;42.684;23.252;2022-07-29T04:34:18;14.38;;;13.27;;
11338;SDS011;5724;42.684;23.252;2022-07-29T04:36:43;14.40;;;13.38;;
11338;SDS011;5724;42.684;23.252;2022-07-29T04:39:09;15.32;;;14.05;;
11338;SDS011;5724;42.684;23.252;2022-07-29T04:41:35;14.68;;;13.63;;
11338;SDS011;5724;42.684;23.252;2022-07-29T04:44:00;14.32;;;13.15;;
11338;SDS011;5724;42.684;23.252;2022-07-29T04:46:30;16.05;;;13.52;;
11338;SDS011;5724;42.684;23.252;2022-07-29T04:48:55;14.63;;;13.32;;
11338;SDS011;5724;42.684;23.252;2022-07-29T04:51:21;13.70;;;12.57;;
11338;SDS011;5724;42.684;23.252;2022-07-29T04:53:46;14.52;;;13.32;;
11338;SDS011;5724;42.684;23.252;2022-07-29T04:56:12;15.38;;;14.00;;
11338;SDS011;5724;42.684;23.252;2022-07-29T04:58:37;15.07;;;13.88;;
11338;SDS011;5724;42.684;23.252;2022-07-29T05:01:03;13.88;;;12.73;;
11338;SDS011;5724;42.684;23.252;2022-07-29T05:03:29;13.75;;;12.95;;
11338;SDS011;5724;42.684;23.252;2022-07-29T05:05:55;13.60;;;12.52;;
11338;SDS011;5724;42.684;23.252;2022-07-29T05:08:20;13.05;;;12.00;;
11338;SDS011;5724;42.684;23.252;2022-07-29T05:10:46;13.15;;;12.15;;
11338;SDS011;5724;42.684;23.252;2022-07-29T05:13:11;13.73;;;12.85;;
11338;SDS011;5724;42.684;23.252;2022-07-29T05:15:37;12.90;;;11.95;;
11338;SDS011;5724;42.684;23.252;2022-07-29T05:18:03;13.60;;;12.65;;
11338;SDS011;5724;42.684;23.252;2022-07-29T05:20:29;15.27;;;13.63;;
11338;SDS011;5724;42.684;23.252;2022-07-29T05:22:59;13.23;;;12.05;;
11338;SDS011;5724;42.684;23.252;2022-07-29T05:25:26;13.93;;;12.65;;
11338;SDS011;5724;42.684;23.252;2022-07-29T05:27:52;12.20;;;11.40;;
11338;SDS011;5724;42.684;23.252;2022-07-29T05:30:19;12.65;;;11.68;;
11338;SDS011;5724;42.684;23.252;2022-07-29T05:32:44;13.32;;;12.27;;
11338;SDS011;5724;42.684;23.252;2022-07-29T05:35:10;13.63;;;12.25;;
11338;SDS011;5724;42.684;23.252;2022-07-29T05:37:37;13.30;;;12.23;;
11338;SDS011;5724;42.684;23.252;2022-07-29T05:40:03;13.10;;;12.02;;
11338;SDS011;5724;42.684;23.252;2022-07-29T05:42:30;13.13;;;12.23;;
11338;SDS011;5724;42.684;23.252;2022-07-29T05:44:55;11.82;;;10.95;;
11338;SDS011;5724;42.684;23.252;2022-07-29T05:47:21;13.40;;;12.25;;
11338;SDS011;5724;42.684;23.252;2022-07-29T05:49:47;12.95;;;11.98;;
11338;SDS011;5724;42.684;23.252;2022-07-29T05:52:13;14.43;;;13.40;;
11338;SDS011;5724;42.684;23.252;2022-07-29T05:54:39;14.55;;;13.35;;
11338;SDS011;5724;42.684;23.252;2022-07-29T05:57:05;14.75;;;13.65;;
11338;SDS011;5724;42.684;23.252;2022-07-29T05:59:31;14.38;;;13.38;;
11338;SDS011;5724;42.684;23.252;2022-07-29T06:02:00;13.68;;;12.48;;
11338;SDS011;5724;42.684;23.252;2022-07-29T06:04:26;13.93;;;12.85;;
11338;SDS011;5724;42.684;23.252;2022-07-29T06:06:51;15.30;;;13.90;;
11338;SDS011;5724;42.684;23.252;2022-07-29T06:09:17;17.67;;;16.10;;
11338;SDS011;5724;42.684;23.252;2022-07-29T06:11:42;18.58;;;17.20;;
11338;SDS011;5724;42.684;23.252;2022-07-29T06:14:08;18.83;;;17.30;;
11338;SDS011;5724;42.684;23.252;2022-07-29T06:16:34;19.85;;;18.13;;
11338;SDS011;5724;42.684;23.252;2022-07-29T06:18:59;19.35;;;17.75;;
11338;SDS011;5724;42.684;23.252;2022-07-29T06:21:25;18.90;;;17.20;;
11338;SDS011;5724;42.684;23.252;2022-07-29T06:23:50;16.80;;;15.48;;
11338;SDS011;5724;42.684;23.252;2022-07-29T06:26:16;15.80;;;14.60;;
11338;SDS011;5724;42.684;23.252;2022-07-29T06:28:41;15.90;;;14.38;;
11338;SDS011;5724;42.684;23.252;2022-07-29T06:31:07;15.63;;;14.18;;
11338;SDS011;5724;42.684;23.252;2022-07-29T06:33:33;15.02;;;13.77;;
11338;SDS011;5724;42.684;23.252;2022-07-29T06:35:58;15.05;;;13.55;;
11338;SDS011;5724;42.684;23.252;2022-07-29T06:38:24;14.38;;;12.93;;
11338;SDS011;5724;42.684;23.252;2022-07-29T06:40:50;12.93;;;11.93;;
11338;SDS011;5724;42.684;23.252;2022-07-29T06:46:02;11.30;;;10.50;;
11338;SDS011;5724;42.684;23.252;2022-07-29T06:48:32;12.20;;;11.00;;
11338;SDS011;5724;42.684;23.252;2022-07-29T06:50:58;7.50;;;7.03;;
11338;SDS011;5724;42.684;23.252;2022-07-29T06:53:26;6.35;;;5.88;;
11338;SDS011;5724;42.684;23.252;2022-07-29T06:55:52;8.15;;;7.40;;
11338;SDS011;5724;42.684;23.252;2022-07-29T06:58:17;6.57;;;5.95;;
11338;SDS011;5724;42.684;23.252;2022-07-29T07:00:45;6.07;;;5.68;;
11338;SDS011;5724;42.684;23.252;2022-07-29T07:03:12;6.30;;;6.00;;
11338;SDS011;5724;42.684;23.252;2022-07-29T07:05:38;6.00;;;5.53;;
11338;SDS011;5724;42.684;23.252;2022-07-29T07:08:04;7.05;;;6.35;;
11338;SDS011;5724;42.684;23.252;2022-07-29T07:10:30;7.25;;;6.13;;
11338;SDS011;5724;42.684;23.252;2022-07-29T07:12:56;12.32;;;5.90;;
11338;SDS011;5724;42.684;23.252;2022-07-29T07:15:21;6.25;;;5.78;;
11338;SDS011;5724;42.684;23.252;2022-07-29T07:17:50;6.40;;;5.80;;
11338;SDS011;5724;42.684;23.252;2022-07-29T07:20:16;6.78;;;6.28;;
11338;SDS011;5724;42.684;23.252;2022-07-29T07:22:42;7.32;;;6.72;;
11338;SDS011;5724;42.684;23.252;2022-07-29T07:25:07;6.72;;;5.47;;
11338;SDS011;5724;42.684;23.252;2022-07-29T07:27:34;5.40;;;5.10;;
11338;SDS011;5724;42.684;23.252;2022-07-29T07:30:00;8.77;;;5.57;;
11338;SDS011;5724;42.684;23.252;2022-07-29T07:32:26;5.53;;;5.22;;
11338;SDS011;5724;42.684;23.252;2022-07-29T07:34:52;5.88;;;5.57;;
11338;SDS011;5724;42.684;23.252;2022-07-29T07:37:17;6.50;;;6.00;;
11338;SDS011;5724;42.684;23.252;2022-07-29T07:39:44;6.38;;;5.18;;
11338;SDS011;5724;42.684;23.252;2022-07-29T07:42:10;5.55;;;5.15;;
11338;SDS011;5724;42.684;23.252;2022-07-29T07:44:38;5.72;;;5.35;;
11338;SDS011;5724;42.684;23.252;2022-07-29T07:47:06;7.13;;;5.70;;
11338;SDS011;5724;42.684;23.252;2022-07-29T07:49:31;5.68;;;5.38;;
11338;SDS011;5724;42.684;23.252;2022-07-29T07:51:57;6.53;;;5.57;;
11338;SDS011;5724;42.684;23.252;2022-07-29T07:54:22;5.38;;;5.10;;
11338;SDS011;5724;42.684;23.252;2022-07-29T07:56:48;5.65;;;5.05;;
11338;SDS011;5724;42.684;23.252;2022-07-29T07:59:14;5.50;;;5.10;;
11338;SDS011;5724;42.684;23.252;2022-07-29T08:01:41;6.00;;;5.53;;
11338;SDS011;5724;42.684;23.252;2022-07-29T08:04:07;6.60;;;5.75;;
11338;SDS011;5724;42.684;23.252;2022-07-29T08:06:33;5.30;;;4.80;;
11338;SDS011;5724;42.684;23.252;2022-07-29T08:09:00;5.53;;;5.13;;
11338;SDS011;5724;42.684;23.252;2022-07-29T08:11:25;5.57;;;5.18;;
11338;SDS011;5724;42.684;23.252;2022-07-29T08:13:51;5.05;;;4.60;;
11338;SDS011;5724;42.684;23.252;2022-07-29T08:16:17;6.63;;;5.20;;
11338;SDS011;5724;42.684;23.252;2022-07-29T08:18:44;5.03;;;4.57;;
11338;SDS011;5724;42.684;23.252;2022-07-29T08:21:10;4.93;;;4.53;;
11338;SDS011;5724;42.684;23.252;2022-07-29T08:23:36;5.13;;;4.93;;
11338;SDS011;5724;42.684;23.252;2022-07-29T08:26:10;4.97;;;4.68;;
11338;SDS011;5724;42.684;23.252;2022-07-29T08:28:37;4.70;;;4.38;;
11338;SDS011;5724;42.684;23.252;2022-07-29T08:31:03;4.68;;;4.32;;
11338;SDS011;5724;42.684;23.252;2022-07-29T08:33:28;4.22;;;4.07;;
11338;SDS011;5724;42.684;23.252;2022-07-29T08:35:53;5.85;;;4.70;;
11338;SDS011;5724;42.684;23.252;2022-07-29T08:38:19;4.72;;;4.38;;
11338;SDS011;5724;42.684;23.252;2022-07-29T08:40:45;4.72;;;4.30;;
11338;SDS011;5724;42.684;23.252;2022-07-29T08:43:11;5.38;;;4.93;;
11338;SDS011;5724;42.684;23.252;2022-07-29T08:45:43;5.20;;;4.80;;
11338;SDS011;5724;42.684;23.252;2022-07-29T08:48:17;4.68;;;4.38;;
11338;SDS011;5724;42.684;23.252;2022-07-29T08:50:45;4.60;;;4.30;;
11338;SDS011;5724;42.684;23.252;2022-07-29T08:53:13;4.75;;;4.45;;
11338;SDS011;5724;42.684;23.252;2022-07-29T08:55:43;4.72;;;4.30;;
11338;SDS011;5724;42.684;23.252;2022-07-29T08:58:11;4.22;;;3.90;;
11338;SDS011;5724;42.684;23.252;2022-07-29T09:00:40;4.35;;;3.90;;
11338;SDS011;5724;42.684;23.252;2022-07-29T09:03:30;4.70;;;4.30;;
11338;SDS011;5724;42.684;23.252;2022-07-29T09:05:57;4.20;;;3.90;;
11338;SDS011;5724;42.684;23.252;2022-07-29T09:08:23;4.28;;;4.00;;
11338;SDS011;5724;42.684;23.252;2022-07-29T09:10:49;9.02;;;4.65;;
11338;SDS011;5724;42.684;23.252;2022-07-29T09:13:16;4.78;;;4.45;;
11338;SDS011;5724;42.684;23.252;2022-07-29T09:15:41;3.92;;;3.60;;
11338;SDS011;5724;42.684;23.252;2022-07-29T09:18:07;4.43;;;4.15;;
11338;SDS011;5724;42.684;23.252;2022-07-29T09:20:33;4.05;;;3.75;;
11338;SDS011;5724;42.684;23.252;2022-07-29T09:23:16;3.78;;;3.58;;
11338;SDS011;5724;42.684;23.252;2022-07-29T09:25:42;4.25;;;3.92;;
11338;SDS011;5724;42.684;23.252;2022-07-29T09:28:08;3.97;;;3.80;;
11338;SDS011;5724;42.684;23.252;2022-07-29T09:30:36;4.45;;;4.05;;
11338;SDS011;5724;42.684;23.252;2022-07-29T09:33:15;4.28;;;4.07;;
11338;SDS011;5724;42.684;23.252;2022-07-29T09:35:40;4.10;;;3.90;;
11338;SDS011;5724;42.684;23.252;2022-07-29T09:38:10;4.05;;;3.85;;
11338;SDS011;5724;42.684;23.252;2022-07-29T09:40:38;4.43;;;4.22;;
11338;SDS011;5724;42.684;23.252;2022-07-29T09:43:11;4.30;;;4.10;;
11338;SDS011;5724;42.684;23.252;2022-07-29T09:45:38;4.15;;;3.70;;
11338;SDS011;5724;42.684;23.252;2022-07-29T09:48:14;4.53;;;4.32;;
11338;SDS011;5724;42.684;23.252;2022-07-29T09:50:43;3.75;;;3.63;;
11338;SDS011;5724;42.684;23.252;2022-07-29T09:53:09;3.38;;;3.28;;
11338;SDS011;5724;42.684;23.252;2022-07-29T09:55:45;4.25;;;3.95;;
11338;SDS011;5724;42.684;23.252;2022-07-29T09:58:15;4.43;;;4.10;;
11338;SDS011;5724;42.684;23.252;2022-07-29T10:00:46;4.97;;;4.35;;
11338;SDS011;5724;42.684;23.252;2022-07-29T10:03:13;4.28;;;3.90;;
11338;SDS011;5724;42.684;23.252;2022-07-29T10:05:40;3.83;;;3.53;;
11338;SDS011;5724;42.684;23.252;2022-07-29T10:08:07;4.25;;;3.95;;
11338;SDS011;5724;42.684;23.252;2022-07-29T10:10:37;4.47;;;3.97;;
11338;SDS011;5724;42.684;23.252;2022-07-29T10:13:05;4.18;;;3.88;;
11338;SDS011;5724;42.684;23.252;2022-07-29T10:15:35;3.85;;;3.55;;
11338;SDS011;5724;42.684;23.252;2022-07-29T10:18:04;6.97;;;4.68;;
11338;SDS011;5724;42.684;23.252;2022-07-29T10:20:31;4.65;;;4.45;;
11338;SDS011;5724;42.684;23.252;2022-07-29T10:22:57;3.85;;;3.65;;
11338;SDS011;5724;42.684;23.252;2022-07-29T10:25:23;4.88;;;4.65;;
11338;SDS011;5724;42.684;23.252;2022-07-29T10:27:50;4.32;;;4.13;;
11338;SDS011;5724;42.684;23.252;2022-07-29T10:30:16;4.30;;;4.10;;
11338;SDS011;5724;42.684;23.252;2022-07-29T10:43:53;6.55;;;4.63;;
11338;SDS011;5724;42.684;23.252;2022-07-29T10:46:21;4.85;;;4.55;;
11338;SDS011;5724;42.684;23.252;2022-07-29T10:49:06;5.22;;;4.95;;
11338;SDS011;5724;42.684;23.252;2022-07-29T10:57:13;5.72;;;4.57;;
11338;SDS011;5724;42.684;23.252;2022-07-29T10:59:39;5.22;;;4.80;;
11338;SDS011;5724;42.684;23.252;2022-07-29T11:05:07;5.03;;;4.43;;
11338;SDS011;5724;42.684;23.252;2022-07-29T11:07:35;4.85;;;4.45;;
11338;SDS011;5724;42.684;23.252;2022-07-29T11:15:05;4.93;;;4.72;;
11338;SDS011;5724;42.684;23.252;2022-07-29T11:18:07;5.00;;;4.80;;
11338;SDS011;5724;42.684;23.252;2022-07-29T11:23:28;5.50;;;4.93;;
11338;SDS011;5724;42.684;23.252;2022-07-29T11:31:33;11.05;;;5.25;;
11338;SDS011;5724;42.684;23.252;2022-07-29T11:34:18;5.50;;;5.20;;
11338;SDS011;5724;42.684;23.252;2022-07-29T11:39:33;5.35;;;4.90;;
11338;SDS011;5724;42.684;23.252;2022-07-29T11:44:59;5.10;;;4.90;;
11338;SDS011;5724;42.684;23.252;2022-07-29T11:47:35;5.57;;;5.30;;
11338;SDS011;5724;42.684;23.252;2022-07-29T11:50:16;4.72;;;4.53;;
11338;SDS011;5724;42.684;23.252;2022-07-29T11:53:02;4.70;;;4.53;;
11338;SDS011;5724;42.684;23.252;2022-07-29T11:55:35;4.53;;;4.32;;
11338;SDS011;5724;42.684;23.252;2022-07-29T11:58:02;5.20;;;4.90;;
11338;SDS011;5724;42.684;23.252;2022-07-29T12:00:33;4.97;;;4.63;;
11338;SDS011;5724;42.684;23.252;2022-07-29T12:03:01;5.63;;;5.13;;
11338;SDS011;5724;42.684;23.252;2022-07-29T12:05:39;5.38;;;4.90;;
11338;SDS011;5724;42.684;23.252;2022-07-29T12:10:52;5.25;;;4.95;;
11338;SDS011;5724;42.684;23.252;2022-07-29T12:13:19;6.75;;;4.65;;
11338;SDS011;5724;42.684;23.252;2022-07-29T12:15:53;5.65;;;5.07;;
11338;SDS011;5724;42.684;23.252;2022-07-29T12:18:23;5.68;;;4.38;;
11338;SDS011;5724;42.684;23.252;2022-07-29T12:20:56;5.40;;;4.90;;
11338;SDS011;5724;42.684;23.252;2022-07-29T12:23:22;5.07;;;4.68;;
11338;SDS011;5724;42.684;23.252;2022-07-29T12:25:48;5.07;;;4.78;;
11338;SDS011;5724;42.684;23.252;2022-07-29T12:28:14;5.07;;;4.78;;
11338;SDS011;5724;42.684;23.252;2022-07-29T12:30:50;5.18;;;4.60;;
11338;SDS011;5724;42.684;23.252;2022-07-29T12:33:26;6.35;;;4.93;;
11338;SDS011;5724;42.684;23.252;2022-07-29T12:35:56;5.03;;;4.72;;
11338;SDS011;5724;42.684;23.252;2022-07-29T12:38:24;4.90;;;4.60;;
11338;SDS011;5724;42.684;23.252;2022-07-29T12:40:51;5.07;;;4.78;;
11338;SDS011;5724;42.684;23.252;2022-07-29T12:43:18;5.05;;;4.57;;
11338;SDS011;5724;42.684;23.252;2022-07-29T12:45:45;4.93;;;4.72;;
11338;SDS011;5724;42.684;23.252;2022-07-29T12:48:12;5.47;;;4.95;;
11338;SDS011;5724;42.684;23.252;2022-07-29T12:50:52;5.38;;;5.18;;
11338;SDS011;5724;42.684;23.252;2022-07-29T12:53:18;5.55;;;5.25;;
11338;SDS011;5724;42.684;23.252;2022-07-29T12:55:45;5.32;;;4.85;;
11338;SDS011;5724;42.684;23.252;2022-07-29T13:01:05;4.90;;;4.55;;
11338;SDS011;5724;42.684;23.252;2022-07-29T13:04:09;5.15;;;4.93;;
11338;SDS011;5724;42.684;23.252;2022-07-29T13:09:05;5.18;;;4.97;;
11338;SDS011;5724;42.684;23.252;2022-07-29T13:11:37;5.32;;;4.68;;
11338;SDS011;5724;42.684;23.252;2022-07-29T13:14:05;5.07;;;4.88;;
11338;SDS011;5724;42.684;23.252;2022-07-29T13:16:32;5.38;;;4.97;;
11338;SDS011;5724;42.684;23.252;2022-07-29T13:19:08;5.07;;;4.75;;
11338;SDS011;5724;42.684;23.252;2022-07-29T13:21:35;4.40;;;4.20;;
11338;SDS011;5724;42.684;23.252;2022-07-29T13:24:00;4.88;;;4.63;;
11338;SDS011;5724;42.684;23.252;2022-07-29T13:26:26;5.38;;;5.07;;
11338;SDS011;5724;42.684;23.252;2022-07-29T13:28:53;5.07;;;4.68;;
11338;SDS011;5724;42.684;23.252;2022-07-29T13:31:18;5.30;;;4.97;;
11338;SDS011;5724;42.684;23.252;2022-07-29T13:33:44;5.35;;;4.93;;
11338;SDS011;5724;42.684;23.252;2022-07-29T13:36:09;5.22;;;4.93;;
11338;SDS011;5724;42.684;23.252;2022-07-29T13:38:35;5.30;;;5.03;;
11338;SDS011;5724;42.684;23.252;2022-07-29T13:41:00;4.65;;;4.47;;
11338;SDS011;5724;42.684;23.252;2022-07-29T13:43:26;5.45;;;5.20;;
11338;SDS011;5724;42.684;23.252;2022-07-29T13:45:51;5.20;;;4.70;;
11338;SDS011;5724;42.684;23.252;2022-07-29T13:48:17;5.03;;;4.72;;
11338;SDS011;5724;42.684;23.252;2022-07-29T13:50:42;5.70;;;5.30;;
11338;SDS011;5724;42.684;23.252;2022-07-29T13:53:08;5.13;;;4.72;;
11338;SDS011;5724;42.684;23.252;2022-07-29T13:55:33;5.40;;;5.00;;
11338;SDS011;5724;42.684;23.252;2022-07-29T13:57:59;4.85;;;4.55;;
11338;SDS011;5724;42.684;23.252;2022-07-29T14:00:25;5.38;;;5.00;;
11338;SDS011;5724;42.684;23.252;2022-07-29T14:02:51;4.90;;;4.50;;
11338;SDS011;5724;42.684;23.252;2022-07-29T14:05:17;4.65;;;4.45;;
11338;SDS011;5724;42.684;23.252;2022-07-29T14:07:43;5.25;;;5.00;;
11338;SDS011;5724;42.684;23.252;2022-07-29T14:10:08;5.32;;;4.82;;
11338;SDS011;5724;42.684;23.252;2022-07-29T14:12:34;4.30;;;4.00;;
11338;SDS011;5724;42.684;23.252;2022-07-29T14:15:00;5.18;;;4.78;;
11338;SDS011;5724;42.684;23.252;2022-07-29T14:17:25;4.95;;;4.75;;
11338;SDS011;5724;42.684;23.252;2022-07-29T14:19:51;4.82;;;4.53;;
11338;SDS011;5724;42.684;23.252;2022-07-29T14:22:16;4.75;;;4.30;;
11338;SDS011;5724;42.684;23.252;2022-07-29T14:24:44;5.10;;;4.75;;
11338;SDS011;5724;42.684;23.252;2022-07-29T14:27:10;5.00;;;4.60;;
11338;SDS011;5724;42.684;23.252;2022-07-29T14:29:36;4.80;;;4.45;;
11338;SDS011;5724;42.684;23.252;2022-07-29T14:32:02;4.80;;;4.50;;
11338;SDS011;5724;42.684;23.252;2022-07-29T14:34:28;5.03;;;4.78;;
11338;SDS011;5724;42.684;23.252;2022-07-29T14:36:53;4.25;;;4.05;;
11338;SDS011;5724;42.684;23.252;2022-07-29T14:39:23;5.47;;;4.85;;
11338;SDS011;5724;42.684;23.252;2022-07-29T14:41:49;5.60;;;5.30;;
11338;SDS011;5724;42.684;23.252;2022-07-29T14:44:16;6.05;;;5.10;;
11338;SDS011;5724;42.684;23.252;2022-07-29T14:46:42;4.85;;;4.65;;
11338;SDS011;5724;42.684;23.252;2022-07-29T14:49:08;7.18;;;6.68;;
11338;SDS011;5724;42.684;23.252;2022-07-29T14:51:33;6.47;;;6.18;;
11338;SDS011;5724;42.684;23.252;2022-07-29T14:53:59;5.07;;;4.75;;
11338;SDS011;5724;42.684;23.252;2022-07-29T14:56:24;4.90;;;4.70;;
11338;SDS011;5724;42.684;23.252;2022-07-29T14:58:50;4.80;;;4.60;;
11338;SDS011;5724;42.684;23.252;2022-07-29T15:01:15;5.85;;;5.50;;
11338;SDS011;5724;42.684;23.252;2022-07-29T15:03:41;5.05;;;4.70;;
11338;SDS011;5724;42.684;23.252;2022-07-29T15:06:06;4.70;;;4.50;;
11338;SDS011;5724;42.684;23.252;2022-07-29T15:08:32;4.80;;;4.50;;
11338;SDS011;5724;42.684;23.252;2022-07-29T15:10:57;5.18;;;4.97;;
11338;SDS011;5724;42.684;23.252;2022-07-29T15:13:24;5.10;;;4.80;;
11338;SDS011;5724;42.684;23.252;2022-07-29T15:15:50;5.10;;;4.70;;
11338;SDS011;5724;42.684;23.252;2022-07-29T15:18:16;5.45;;;5.05;;
11338;SDS011;5724;42.684;23.252;2022-07-29T15:20:42;5.18;;;4.97;;
11338;SDS011;5724;42.684;23.252;2022-07-29T15:23:07;5.97;;;5.00;;
11338;SDS011;5724;42.684;23.252;2022-07-29T15:25:34;4.93;;;4.72;;
11338;SDS011;5724;42.684;23.252;2022-07-29T15:28:01;5.38;;;5.18;;
11338;SDS011;5724;42.684;23.252;2022-07-29T15:30:29;5.47;;;5.18;;
11338;SDS011;5724;42.684;23.252;2022-07-29T15:32:55;5.07;;;4.68;;
11338;SDS011;5724;42.684;23.252;2022-07-29T15:35:20;5.47;;;5.15;;
11338;SDS011;5724;42.684;23.252;2022-07-29T15:37:46;5.00;;;4.80;;
11338;SDS011;5724;42.684;23.252;2022-07-29T15:40:11;5.07;;;4.85;;